createdAt,value
2022-08-22T00:02:53.247Z,65.44
2022-08-22T00:02:59.073Z,73.45
2022-08-22T00:03:38.762Z,74.20
2022-08-22T00:08:52.213Z,73.98
2022-08-22T00:14:02.228Z,74.25
2022-08-22T00:19:14.764Z,74.36
2022-08-22T00:24:25.906Z,74.36
2022-08-22T00:29:35.992Z,74.12
2022-08-22T00:34:49.767Z,74.00
2022-08-22T00:40:03.390Z,74.48
2022-08-22T00:45:58.840Z,74.35
2022-08-22T00:51:20.082Z,74.61
2022-08-22T00:57:01.529Z,74.19
2022-08-22T01:02:33.440Z,74.77
2022-08-22T01:07:55.291Z,74.86
2022-08-22T01:13:13.111Z,74.82
2022-08-22T01:18:56.007Z,74.50
2022-08-22T01:24:32.640Z,74.70
2022-08-22T01:30:14.324Z,75.20
2022-08-22T01:35:42.332Z,75.55
2022-08-22T01:41:28.021Z,75.38
2022-08-22T01:46:45.700Z,75.23
2022-08-22T01:51:56.555Z,75.74
2022-08-22T01:57:03.306Z,75.99
2022-08-22T02:02:21.145Z,75.96
2022-08-22T02:07:32.076Z,76.03
2022-08-22T02:12:43.646Z,75.49
2022-08-22T02:18:01.183Z,76.29
2022-08-22T02:23:16.949Z,76.21
2022-08-22T02:28:34.373Z,76.22
2022-08-22T02:33:49.742Z,76.07
2022-08-22T02:39:03.949Z,76.62
2022-08-22T02:44:22.348Z,76.58
2022-08-22T02:49:35.617Z,76.54
2022-08-22T02:54:55.852Z,76.62
2022-08-22T03:00:31.819Z,77.02
2022-08-22T03:05:50.123Z,77.06
2022-08-22T03:11:04.324Z,77.34
2022-08-22T03:16:13.814Z,76.49
2022-08-22T03:21:24.965Z,76.94
2022-08-22T03:26:42.215Z,77.44
2022-08-22T03:32:08.101Z,77.69
2022-08-22T03:43:09.060Z,76.96
2022-08-22T03:48:44.416Z,76.96
2022-08-22T03:54:05.570Z,77.58
2022-08-22T03:59:23.609Z,78.64
2022-08-22T04:04:54.365Z,78.37
2022-08-22T04:10:45.023Z,78.43
2022-08-22T04:16:20.585Z,77.88
2022-08-22T04:21:44.062Z,77.75
2022-08-22T04:26:52.780Z,78.67
2022-08-22T04:32:10.594Z,78.14
2022-08-22T04:37:24.151Z,78.04
2022-08-22T04:42:34.466Z,78.17
2022-08-22T04:47:42.637Z,77.86
2022-08-22T04:53:04.116Z,77.98
2022-08-22T04:58:20.224Z,78.34
2022-08-22T05:03:29.623Z,78.44
2022-08-22T05:08:39.274Z,79.22
2022-08-22T05:13:48.453Z,79.08
2022-08-22T05:18:58.538Z,78.41
2022-08-22T05:24:06.373Z,77.89
2022-08-22T05:29:12.243Z,77.78
2022-08-22T05:34:21.546Z,78.50
2022-08-22T05:39:27.995Z,78.05
2022-08-22T05:44:34.255Z,77.73
2022-08-22T05:49:45.160Z,77.43
2022-08-22T05:54:54.207Z,76.55
2022-08-22T06:00:04.720Z,76.37
2022-08-22T06:05:33.443Z,77.28
2022-08-22T06:10:43.136Z,77.39
2022-08-22T06:16:00.011Z,77.22
2022-08-22T06:21:08.734Z,75.93
2022-08-22T06:26:20.788Z,76.01
2022-08-22T06:31:29.351Z,76.34
2022-08-22T06:36:36.473Z,75.76
2022-08-22T06:41:45.300Z,74.91
2022-08-22T06:46:53.520Z,74.67
2022-08-22T06:52:03.316Z,74.84
2022-08-22T06:57:07.773Z,73.83
2022-08-22T07:02:24.173Z,74.40
2022-08-22T07:07:29.635Z,73.70
2022-08-22T07:12:38.569Z,72.17
2022-08-22T07:17:51.283Z,70.45
2022-08-22T07:22:59.163Z,68.93
2022-08-22T07:28:16.046Z,67.98
2022-08-22T07:33:40.726Z,67.47
2022-08-22T07:38:48.900Z,66.88
2022-08-22T07:43:56.900Z,65.82
2022-08-22T07:49:09.651Z,65.73
2022-08-22T07:54:17.045Z,62.88
2022-08-22T07:59:22.842Z,62.96
2022-08-22T08:04:30.718Z,63.52
2022-08-22T08:09:40.687Z,60.38
2022-08-22T08:14:51.016Z,62.86
2022-08-22T08:19:56.466Z,61.73
2022-08-22T08:25:03.621Z,61.82
2022-08-22T08:30:15.782Z,60.32
2022-08-22T08:35:25.426Z,62.20
2022-08-22T08:40:57.790Z,59.71
2022-08-22T08:46:55.658Z,59.72
2022-08-22T08:52:27.216Z,59.00
2022-08-22T08:57:46.615Z,58.12
2022-08-22T09:02:58.628Z,58.60
2022-08-22T09:08:39.563Z,57.86
2022-08-22T09:13:55.912Z,59.02
2022-08-22T09:19:19.292Z,59.09
2022-08-22T09:25:06.168Z,60.72
2022-08-22T09:30:14.373Z,59.18
2022-08-22T09:35:27.067Z,58.01
2022-08-22T09:40:38.189Z,53.33
2022-08-22T09:45:51.100Z,54.21
2022-08-22T09:51:19.995Z,53.92
2022-08-22T09:56:37.790Z,54.07
2022-08-22T10:01:54.704Z,52.68
2022-08-22T10:07:11.717Z,51.08
2022-08-22T10:12:20.549Z,51.76
2022-08-22T10:17:36.589Z,52.43
2022-08-22T10:22:49.987Z,52.26
2022-08-22T10:28:10.321Z,51.39
2022-08-22T10:33:21.338Z,50.96
2022-08-22T10:38:46.292Z,51.87
2022-08-22T10:44:04.494Z,51.78
2022-08-22T10:49:54.601Z,50.62
2022-08-22T10:55:20.597Z,48.93
2022-08-22T11:00:50.145Z,48.88
2022-08-22T11:05:59.608Z,51.77
2022-08-22T11:11:18.481Z,50.42
2022-08-22T11:16:41.798Z,51.56
2022-08-22T11:21:55.577Z,51.99
2022-08-22T11:27:07.221Z,52.57
2022-08-22T11:32:18.080Z,50.22
2022-08-22T11:37:42.950Z,52.31
2022-08-22T11:42:51.816Z,50.60
2022-08-22T11:48:11.292Z,50.36
2022-08-22T11:53:29.147Z,51.40
2022-08-22T11:58:45.855Z,48.68
2022-08-22T12:04:03.405Z,49.85
2022-08-22T12:09:38.840Z,49.65
2022-08-22T12:14:46.368Z,50.25
2022-08-22T12:20:16.169Z,50.39
2022-08-22T12:25:44.462Z,49.86
2022-08-22T12:30:58.484Z,50.11
2022-08-22T12:36:40.080Z,49.73
2022-08-22T12:42:07.452Z,50.19
2022-08-22T12:47:25.216Z,50.07
2022-08-22T12:52:47.486Z,50.28
2022-08-22T12:58:01.350Z,50.00
2022-08-22T13:03:08.299Z,50.53
2022-08-22T13:08:17.787Z,50.78
2022-08-22T13:13:37.272Z,51.06
2022-08-22T13:18:53.576Z,50.33
2022-08-22T13:23:59.871Z,50.27
2022-08-22T13:29:25.038Z,51.12
2022-08-22T13:34:40.651Z,50.45
2022-08-22T13:39:50.481Z,50.31
2022-08-22T13:44:59.312Z,51.49
2022-08-22T13:50:14.458Z,52.69
2022-08-22T13:55:22.014Z,50.76
2022-08-22T14:01:14.246Z,50.50
2022-08-22T14:06:38.356Z,51.01
2022-08-22T14:11:48.606Z,51.17
2022-08-22T14:16:56.137Z,50.11
2022-08-22T14:22:02.116Z,50.84
2022-08-22T14:27:08.841Z,51.29
2022-08-22T14:32:35.426Z,51.68
2022-08-22T14:37:41.973Z,49.53
2022-08-22T14:42:49.716Z,50.18
2022-08-22T14:48:14.098Z,50.07
2022-08-22T14:53:26.328Z,50.69
2022-08-22T14:58:34.160Z,49.70
2022-08-22T15:03:40.253Z,49.19
2022-08-22T15:08:50.687Z,51.06
2022-08-22T15:14:01.033Z,51.70
2022-08-22T15:19:25.900Z,52.20
2022-08-22T15:24:31.483Z,50.77
2022-08-22T15:29:45.095Z,49.96
2022-08-22T15:34:52.423Z,50.05
2022-08-22T15:40:11.957Z,50.09
2022-08-22T15:45:34.024Z,53.06
2022-08-22T15:50:55.899Z,52.35
2022-08-22T15:56:27.106Z,55.33
2022-08-22T16:01:43.628Z,54.54
2022-08-22T16:06:58.043Z,53.30
2022-08-22T16:12:05.363Z,54.37
2022-08-22T16:17:53.349Z,53.49
2022-08-22T16:23:10.276Z,53.23
2022-08-22T16:28:41.443Z,53.20
2022-08-22T16:33:47.969Z,53.06
2022-08-22T16:38:54.768Z,51.09
2022-08-22T16:44:31.086Z,51.17
2022-08-22T16:49:37.479Z,51.04
2022-08-22T16:54:47.175Z,51.97
2022-08-22T17:00:09.239Z,52.15
2022-08-22T17:05:22.637Z,52.32
2022-08-22T17:10:38.967Z,52.40
2022-08-22T17:15:56.667Z,52.62
2022-08-22T17:21:10.123Z,53.85
2022-08-22T17:26:23.537Z,53.71
2022-08-22T17:31:33.448Z,53.83
2022-08-22T17:37:02.283Z,54.64
2022-08-22T17:42:22.097Z,54.17
2022-08-22T17:47:31.170Z,54.79
2022-08-22T17:52:38.727Z,54.70
2022-08-22T17:57:50.874Z,55.22
2022-08-22T18:02:59.588Z,56.79
2022-08-22T18:08:08.887Z,56.77
2022-08-22T18:13:21.748Z,58.55
2022-08-22T18:18:35.785Z,58.89
2022-08-22T18:23:43.648Z,60.07
2022-08-22T18:28:55.893Z,58.94
2022-08-22T18:34:04.204Z,59.69
2022-08-22T18:39:16.021Z,59.95
2022-08-22T18:44:25.126Z,60.76
2022-08-22T18:49:54.019Z,60.48
2022-08-22T18:55:19.983Z,60.36
2022-08-22T19:00:40.949Z,58.81
2022-08-22T19:06:02.466Z,58.44
2022-08-22T19:11:20.164Z,58.75
2022-08-22T19:16:59.008Z,57.92
2022-08-22T19:22:34.168Z,59.55
2022-08-22T19:27:40.508Z,59.39
2022-08-22T19:33:03.173Z,59.23
2022-08-22T19:38:07.589Z,59.67
2022-08-22T19:43:32.852Z,58.30
2022-08-22T19:48:47.546Z,59.22
2022-08-22T19:54:04.753Z,59.93
2022-08-22T19:59:20.659Z,60.26
2022-08-22T20:04:59.920Z,60.77
2022-08-22T20:10:17.491Z,62.92
2022-08-22T20:15:23.097Z,63.64
2022-08-22T20:20:56.450Z,65.00
2022-08-22T20:26:00.432Z,65.17
2022-08-22T20:31:07.671Z,64.71
2022-08-22T20:36:27.090Z,65.08
2022-08-22T20:41:36.034Z,65.58
2022-08-22T20:46:53.122Z,66.39
2022-08-22T20:52:01.960Z,67.03
2022-08-22T20:57:16.063Z,67.89
2022-08-22T21:02:24.668Z,68.66
2022-08-22T21:07:31.767Z,69.12
2022-08-22T21:12:34.873Z,68.68
2022-08-22T21:17:39.595Z,69.95
2022-08-22T21:22:44.142Z,70.13
2022-08-22T21:27:49.872Z,72.30
2022-08-22T21:32:56.199Z,74.96
2022-08-22T21:38:02.488Z,75.99
2022-08-22T21:43:08.576Z,75.04
2022-08-22T21:48:37.964Z,75.44
2022-08-22T21:53:42.421Z,75.14
2022-08-22T21:58:46.369Z,75.49
2022-08-22T22:03:49.661Z,75.69
2022-08-22T22:08:54.041Z,75.85
2022-08-22T22:13:57.060Z,77.23
2022-08-22T22:19:00.750Z,76.73
2022-08-22T22:24:05.560Z,76.37
2022-08-22T22:29:10.727Z,76.38
2022-08-22T22:34:13.963Z,76.26
2022-08-22T22:39:18.354Z,77.24
2022-08-22T22:44:21.606Z,77.29
2022-08-22T22:49:25.371Z,79.90
2022-08-22T22:54:29.839Z,78.55
2022-08-22T22:59:32.849Z,79.35
2022-08-22T23:04:39.235Z,78.18
2022-08-22T23:09:44.720Z,77.97
2022-08-22T23:14:48.829Z,77.54
2022-08-22T23:19:52.639Z,77.25
2022-08-22T23:24:56.965Z,78.05
2022-08-22T23:29:59.930Z,77.34
2022-08-22T23:35:02.943Z,77.87
2022-08-22T23:40:09.547Z,78.33
2022-08-22T23:45:12.790Z,78.26
2022-08-22T23:50:15.897Z,78.35
2022-08-22T23:55:20.302Z,79.78
